sensor_id;sensor_type;location;lat;lon;timestamp;P1;durP1;ratioP1;P2;durP2;ratioP2
39082;SDS011;24834;44.444;26.098;2023-10-13T00:01:15;20.00;;;19.00;;
39082;SDS011;24834;44.444;26.098;2023-10-13T00:07:17;22.67;;;20.33;;
39082;SDS011;24834;44.444;26.098;2023-10-13T00:13:20;17.67;;;16.33;;
39082;SDS011;24834;44.444;26.098;2023-10-13T00:19:23;18.67;;;17.33;;
39082;SDS011;24834;44.444;26.098;2023-10-13T00:25:26;20.33;;;18.00;;
39082;SDS011;24834;44.444;26.098;2023-10-13T00:31:29;20.00;;;18.50;;
39082;SDS011;24834;44.444;26.098;2023-10-13T00:37:35;18.67;;;16.00;;
39082;SDS011;24834;44.444;26.098;2023-10-13T00:43:45;17.00;;;17.00;;
39082;SDS011;24834;44.444;26.098;2023-10-13T00:50:06;19.00;;;18.00;;
39082;SDS011;24834;44.444;26.098;2023-10-13T00:56:14;18.33;;;18.33;;
39082;SDS011;24834;44.444;26.098;2023-10-13T01:02:29;19.67;;;19.67;;
39082;SDS011;24834;44.444;26.098;2023-10-13T01:08:40;20.33;;;20.33;;
39082;SDS011;24834;44.444;26.098;2023-10-13T01:14:46;21.00;;;18.33;;
39082;SDS011;24834;44.444;26.098;2023-10-13T01:20:50;20.00;;;17.00;;
39082;SDS011;24834;44.444;26.098;2023-10-13T01:27:01;23.00;;;17.00;;
39082;SDS011;24834;44.444;26.098;2023-10-13T01:33:22;18.33;;;16.67;;
39082;SDS011;24834;44.444;26.098;2023-10-13T01:39:29;16.33;;;15.00;;
39082;SDS011;24834;44.444;26.098;2023-10-13T01:45:32;25.75;;;21.00;;
39082;SDS011;24834;44.444;26.098;2023-10-13T01:51:34;26.25;;;24.00;;
39082;SDS011;24834;44.444;26.098;2023-10-13T01:57:40;20.33;;;20.33;;
39082;SDS011;24834;44.444;26.098;2023-10-13T02:03:48;22.67;;;19.33;;
39082;SDS011;24834;44.444;26.098;2023-10-13T02:09:51;25.67;;;23.00;;
39082;SDS011;24834;44.444;26.098;2023-10-13T02:15:57;25.00;;;21.67;;
39082;SDS011;24834;44.444;26.098;2023-10-13T02:22:05;25.25;;;25.00;;
39082;SDS011;24834;44.444;26.098;2023-10-13T02:28:11;28.50;;;24.25;;
39082;SDS011;24834;44.444;26.098;2023-10-13T02:34:23;26.25;;;25.00;;
39082;SDS011;24834;44.444;26.098;2023-10-13T02:40:27;27.25;;;24.50;;
39082;SDS011;24834;44.444;26.098;2023-10-13T02:46:30;25.75;;;25.00;;
39082;SDS011;24834;44.444;26.098;2023-10-13T02:52:32;23.00;;;21.25;;
39082;SDS011;24834;44.444;26.098;2023-10-13T02:58:40;23.00;;;23.00;;
39082;SDS011;24834;44.444;26.098;2023-10-13T03:04:47;26.00;;;23.00;;
39082;SDS011;24834;44.444;26.098;2023-10-13T03:10:50;27.25;;;25.00;;
39082;SDS011;24834;44.444;26.098;2023-10-13T03:16:57;29.25;;;25.75;;
39082;SDS011;24834;44.444;26.098;2023-10-13T03:23:04;24.75;;;24.75;;
39082;SDS011;24834;44.444;26.098;2023-10-13T03:29:11;27.00;;;26.25;;
39082;SDS011;24834;44.444;26.098;2023-10-13T03:35:22;29.50;;;28.50;;
39082;SDS011;24834;44.444;26.098;2023-10-13T03:41:33;32.00;;;29.00;;
39082;SDS011;24834;44.444;26.098;2023-10-13T03:47:39;24.00;;;23.75;;
39082;SDS011;24834;44.444;26.098;2023-10-13T03:53:44;36.75;;;31.50;;
39082;SDS011;24834;44.444;26.098;2023-10-13T03:59:56;28.00;;;25.50;;
39082;SDS011;24834;44.444;26.098;2023-10-13T04:05:58;32.50;;;28.25;;
39082;SDS011;24834;44.444;26.098;2023-10-13T04:12:08;35.00;;;33.75;;
39082;SDS011;24834;44.444;26.098;2023-10-13T04:18:14;34.00;;;30.50;;
39082;SDS011;24834;44.444;26.098;2023-10-13T04:24:35;40.25;;;37.50;;
39082;SDS011;24834;44.444;26.098;2023-10-13T04:31:03;37.00;;;35.75;;
39082;SDS011;24834;44.444;26.098;2023-10-13T04:37:28;36.75;;;35.00;;
39082;SDS011;24834;44.444;26.098;2023-10-13T04:43:50;35.50;;;34.75;;
39082;SDS011;24834;44.444;26.098;2023-10-13T04:49:58;34.00;;;33.25;;
39082;SDS011;24834;44.444;26.098;2023-10-13T04:56:03;34.75;;;33.25;;
39082;SDS011;24834;44.444;26.098;2023-10-13T05:02:08;40.75;;;35.75;;
39082;SDS011;24834;44.444;26.098;2023-10-13T05:08:29;42.75;;;38.75;;
